TimeEDT,TemperatureF,Dew PointF,Humidity,Sea Level PressureIn,VisibilityMPH,Wind Direction,Wind SpeedMPH,Gust SpeedMPH,PrecipitationIn,Events,Conditions,WindDirDegrees,DateUTC
12:54 AM,62.1,60.1,93,30.22,5.0,SE,9.2,18.4,0.10,Rain,Light Rain,130,2013-05-19 04:54:00
1:54 AM,61.0,59.0,93,30.22,5.0,SE,11.5,19.6,0.04,Rain,Light Rain,130,2013-05-19 05:54:00
2:54 AM,60.1,57.9,93,30.21,6.0,SE,10.4,19.6,0.01,Rain,Light Rain,130,2013-05-19 06:54:00
3:19 AM,60.8,57.2,88,30.21,3.0,SE,10.4,-,0.05,Rain,Rain,130,2013-05-19 07:19:00
3:41 AM,60.8,57.2,88,30.20,6.0,SE,10.4,-,0.07,Rain,Light Rain,130,2013-05-19 07:41:00
3:54 AM,60.1,57.9,93,30.21,8.0,ESE,8.1,-,0.07,,Overcast,120,2013-05-19 07:54:00
4:54 AM,61.0,59.0,93,30.20,9.0,SE,10.4,-,N/A,,Overcast,130,2013-05-19 08:54:00
5:54 AM,62.1,60.1,93,30.19,8.0,SE,8.1,-,N/A,,Overcast,140,2013-05-19 09:54:00
6:54 AM,62.1,60.1,93,30.19,6.0,SE,9.2,-,N/A,,Overcast,130,2013-05-19 10:54:00
8:54 AM,63.0,61.0,93,30.22,7.0,SE,9.2,-,N/A,,Overcast,140,2013-05-19 12:54:00
9:44 AM,64.4,60.8,88,30.22,2.5,SSE,9.2,-,N/A,,Overcast,160,2013-05-19 13:44:00
9:51 AM,64.4,60.8,88,30.22,4.0,SSE,10.4,-,N/A,,Overcast,160,2013-05-19 13:51:00
9:54 AM,64.0,61.0,90,30.22,6.0,SSE,9.2,-,N/A,,Overcast,160,2013-05-19 13:54:00
10:54 AM,64.9,62.1,90,30.22,9.0,SSE,8.1,-,N/A,,Overcast,150,2013-05-19 14:54:00
11:54 AM,66.0,63.0,90,30.21,9.0,SE,9.2,-,N/A,,Overcast,140,2013-05-19 15:54:00
12:54 PM,69.1,64.0,84,30.19,10.0,SSE,4.6,-,N/A,,Overcast,150,2013-05-19 16:54:00
1:54 PM,69.1,64.0,84,30.17,9.0,SSE,3.5,-,N/A,,Overcast,160,2013-05-19 17:54:00
2:02 PM,69.8,64.4,83,30.17,9.0,SSE,5.8,-,N/A,,Overcast,150,2013-05-19 18:02:00
4:16 PM,75.2,66.2,73,30.13,10.0,SE,5.8,-,N/A,,Mostly Cloudy,140,2013-05-19 20:16:00
4:23 PM,75.2,66.2,73,30.13,10.0,South,6.9,-,N/A,,Mostly Cloudy,170,2013-05-19 20:23:00
4:54 PM,75.0,66.0,73,30.13,10.0,SE,5.8,-,N/A,,Mostly Cloudy,140,2013-05-19 20:54:00
5:54 PM,73.0,66.0,79,30.12,10.0,ESE,8.1,-,N/A,,Overcast,110,2013-05-19 21:54:00
6:30 PM,71.6,66.2,83,30.12,10.0,SSE,9.2,-,N/A,,Overcast,150,2013-05-19 22:30:00
6:39 PM,71.6,64.4,78,30.12,10.0,SSE,8.1,-,N/A,,Overcast,150,2013-05-19 22:39:00
7:33 PM,69.8,66.2,88,30.14,6.0,SSE,5.8,-,0.00,Rain,Light Rain,150,2013-05-19 23:33:00
7:51 PM,68.0,64.4,88,30.14,5.0,SSE,11.5,-,0.01,,Overcast,160,2013-05-19 23:51:00
7:54 PM,68.0,64.9,90,30.14,5.0,SSE,10.4,-,0.01,,Overcast,160,2013-05-19 23:54:00
8:54 PM,66.9,64.0,90,30.14,6.0,SSE,9.2,-,N/A,,Overcast,160,2013-05-20 00:54:00
9:54 PM,66.0,63.0,90,30.17,10.0,SSE,6.9,-,N/A,,Overcast,160,2013-05-20 01:54:00
10:54 PM,66.0,64.0,93,30.17,8.0,SSE,4.6,-,N/A,,Overcast,160,2013-05-20 02:54:00
11:38 PM,66.2,64.4,94,30.16,8.0,SSE,5.8,-,N/A,,Overcast,160,2013-05-20 03:38:00